Time;durP1;ratioP1;P1;durP2;ratioP2;P2;SDS_P1;SDS_P2;PMS_P1;PMS_P2;Temp;Humidity;BMP_temperature;BMP_pressure;BME280_temperature;BME280_humidity;BME280_pressure;Samples;Min_cycle;Max_cycle;Signal;HPM_P1;HPM_P2
2022/01/18 00:01:30;;;;;;;10.75;5.82;;;;;;;;;;5036140;28;20025;-59
2022/01/18 00:03:57;;;;;;;9.95;5.88;;;;;;;;;;5046119;28;20078;-58
2022/01/18 00:06:23;;;;;;;9.93;5.10;;;;;;;;;;5044824;28;20526;-58
2022/01/18 00:08:50;;;;;;;10.43;5.50;;;;;;;;;;5045752;28;20040;-58
2022/01/18 00:11:19;;;;;;;9.98;5.57;;;;;;;;;;5045338;28;20028;-58
2022/01/18 00:13:49;;;;;;;10.05;5.38;;;;;;;;;;5045513;28;20562;-58
2022/01/18 00:19:07;;;;;;;11.80;5.47;;;;;;;;;;5025881;28;20032;-58
2022/01/18 00:24:40;;;;;;;9.77;5.43;;;;;;;;;;4983790;28;20058;-58
2022/01/18 00:27:10;;;;;;;10.27;4.90;;;;;;;;;;4983571;28;20053;-58
2022/01/18 00:29:41;;;;;;;9.35;4.93;;;;;;;;;;5004298;28;20045;-58
2022/01/18 00:32:20;;;;;;;10.65;5.45;;;;;;;;;;5025367;28;20021;-58
2022/01/18 00:34:51;;;;;;;9.25;5.30;;;;;;;;;;5025528;28;20033;-58
2022/01/18 00:37:32;;;;;;;10.90;5.93;;;;;;;;;;5025543;28;20041;-58
2022/01/18 00:39:58;;;;;;;9.43;5.05;;;;;;;;;;5025526;28;20033;-58
2022/01/18 00:42:25;;;;;;;12.73;6.15;;;;;;;;;;5025711;28;20029;-58
2022/01/18 00:44:51;;;;;;;10.20;5.38;;;;;;;;;;5025384;28;20492;-58
2022/01/18 00:47:18;;;;;;;11.52;5.97;;;;;;;;;;5024862;28;20099;-58
2022/01/18 00:49:47;;;;;;;11.35;6.30;;;;;;;;;;5026177;28;20033;-58
2022/01/18 00:52:18;;;;;;;9.88;5.50;;;;;;;;;;5044830;28;20029;-58
2022/01/18 00:54:46;;;;;;;10.82;5.88;;;;;;;;;;5026106;28;20026;-58
2022/01/18 00:57:12;;;;;;;9.82;5.43;;;;;;;;;;5024723;28;20108;-58
2022/01/18 00:59:40;;;;;;;9.30;5.25;;;;;;;;;;5023809;28;20033;-58
2022/01/18 01:02:07;;;;;;;10.75;4.93;;;;;;;;;;5024247;28;20551;-58
2022/01/18 01:04:38;;;;;;;12.23;5.97;;;;;;;;;;5024927;28;20483;-58
2022/01/18 01:07:04;;;;;;;13.35;6.70;;;;;;;;;;5024771;28;20047;-58
2022/01/18 01:09:30;;;;;;;11.02;5.53;;;;;;;;;;5042246;28;20082;-58
2022/01/18 01:11:56;;;;;;;10.55;5.72;;;;;;;;;;5045349;28;20025;-58
2022/01/18 01:14:25;;;;;;;10.63;6.40;;;;;;;;;;5044634;28;20068;-58
2022/01/18 01:35:43;;;;;;;11.98;6.35;;;;;;;;;;5043294;28;20068;-58
2022/01/18 01:43:31;;;;;;;12.43;6.47;;;;;;;;;;5044247;28;19915;-59
2022/01/18 01:45:59;;;;;;;12.45;6.40;;;;;;;;;;5044385;28;20021;-58
2022/01/18 01:48:26;;;;;;;10.05;5.78;;;;;;;;;;5044809;28;20033;-58
2022/01/18 01:51:01;;;;;;;11.98;6.05;;;;;;;;;;5032757;28;20036;-58
2022/01/18 01:53:28;;;;;;;11.55;6.07;;;;;;;;;;5024964;28;20068;-58
2022/01/18 01:55:55;;;;;;;11.88;5.93;;;;;;;;;;5025184;28;20032;-58
2022/01/18 01:58:23;;;;;;;9.98;5.43;;;;;;;;;;5030664;28;20021;-58
2022/01/18 02:00:50;;;;;;;11.18;5.32;;;;;;;;;;5044406;28;20033;-58
2022/01/18 02:03:18;;;;;;;13.30;5.63;;;;;;;;;;5043915;28;20053;-58
2022/01/18 02:05:44;;;;;;;10.98;5.93;;;;;;;;;;5044730;28;20091;-58
2022/01/18 02:08:12;;;;;;;11.27;5.45;;;;;;;;;;5044223;28;20041;-58
2022/01/18 02:10:40;;;;;;;11.38;5.90;;;;;;;;;;5044215;28;20454;-58
2022/01/18 02:13:08;;;;;;;11.07;5.80;;;;;;;;;;5046551;28;20095;-58
2022/01/18 02:15:41;;;;;;;11.32;5.68;;;;;;;;;;5047525;28;20017;-58
2022/01/18 02:23:38;;;;;;;11.05;5.97;;;;;;;;;;5045727;28;20442;-58
2022/01/18 02:26:05;;;;;;;11.00;6.22;;;;;;;;;;5027879;28;20108;-58
2022/01/18 02:28:31;;;;;;;11.48;6.18;;;;;;;;;;5027631;28;20030;-58
2022/01/18 02:30:57;;;;;;;11.68;6.18;;;;;;;;;;5027944;28;20036;-58
2022/01/18 02:33:23;;;;;;;11.20;6.63;;;;;;;;;;5028287;28;20053;-58
2022/01/18 02:35:52;;;;;;;11.85;6.10;;;;;;;;;;5038105;28;20060;-58
2022/01/18 02:38:19;;;;;;;13.00;6.50;;;;;;;;;;5031213;28;20025;-58
2022/01/18 02:40:45;;;;;;;10.73;6.40;;;;;;;;;;5047239;28;20052;-58
2022/01/18 02:45:58;;;;;;;12.65;6.30;;;;;;;;;;5048088;28;20051;-58
2022/01/18 02:48:24;;;;;;;14.02;6.80;;;;;;;;;;5048092;28;20060;-58
2022/01/18 02:50:50;;;;;;;12.07;6.38;;;;;;;;;;5047281;28;20590;-58
2022/01/18 02:53:18;;;;;;;10.52;5.68;;;;;;;;;;5046198;28;20033;-58
2022/01/18 02:55:49;;;;;;;10.43;6.15;;;;;;;;;;5047273;28;20021;-58
2022/01/18 02:58:23;;;;;;;11.15;6.50;;;;;;;;;;5046012;28;20029;-58
2022/01/18 03:03:32;;;;;;;12.45;6.53;;;;;;;;;;5047001;28;20095;-58
2022/01/18 03:06:00;;;;;;;11.18;5.82;;;;;;;;;;5047174;28;20075;-58
2022/01/18 03:08:26;;;;;;;10.23;5.88;;;;;;;;;;5047400;28;20060;-58
2022/01/18 03:10:52;;;;;;;10.30;5.43;;;;;;;;;;5047320;28;20029;-58
2022/01/18 03:13:19;;;;;;;11.40;5.88;;;;;;;;;;5045940;28;20029;-58
2022/01/18 03:15:46;;;;;;;11.63;5.97;;;;;;;;;;5046489;28;20108;-58
2022/01/18 03:18:13;;;;;;;11.82;6.13;;;;;;;;;;5046995;28;20127;-58
2022/01/18 03:20:39;;;;;;;10.30;5.80;;;;;;;;;;5046851;28;20025;-58
2022/01/18 03:23:10;;;;;;;12.85;6.57;;;;;;;;;;5046489;28;20033;-58
2022/01/18 03:25:52;;;;;;;13.02;7.07;;;;;;;;;;5045116;28;20025;-58
2022/01/18 03:28:19;;;;;;;13.93;7.38;;;;;;;;;;5028734;28;20063;-58
2022/01/18 03:30:53;;;;;;;13.43;7.05;;;;;;;;;;5026406;28;20413;-58
2022/01/18 03:33:20;;;;;;;12.25;7.05;;;;;;;;;;5026646;28;20033;-58
2022/01/18 03:35:48;;;;;;;14.75;7.55;;;;;;;;;;5026987;28;20481;-58
2022/01/18 03:38:15;;;;;;;13.45;7.25;;;;;;;;;;5026544;28;20030;-58
2022/01/18 03:40:41;;;;;;;14.80;7.47;;;;;;;;;;5026436;28;20040;-58
2022/01/18 03:43:11;;;;;;;13.35;6.80;;;;;;;;;;5026910;28;20462;-58
2022/01/18 03:45:42;;;;;;;11.05;6.32;;;;;;;;;;5026763;28;20029;-58
2022/01/18 03:48:12;;;;;;;12.85;6.50;;;;;;;;;;5026423;28;20480;-58
2022/01/18 03:50:39;;;;;;;14.70;7.15;;;;;;;;;;5026802;28;20026;-58
2022/01/18 03:53:05;;;;;;;13.52;6.70;;;;;;;;;;5026147;28;20106;-58
2022/01/18 03:55:31;;;;;;;12.60;6.20;;;;;;;;;;5025977;28;20029;-58
2022/01/18 03:57:58;;;;;;;12.65;6.65;;;;;;;;;;5026055;28;20052;-58
2022/01/18 04:00:26;;;;;;;12.10;6.45;;;;;;;;;;5026180;28;20471;-58
2022/01/18 04:02:54;;;;;;;13.15;6.43;;;;;;;;;;5026629;28;20032;-58
2022/01/18 04:05:20;;;;;;;12.98;7.15;;;;;;;;;;5039903;28;20037;-58
2022/01/18 04:07:47;;;;;;;15.45;6.97;;;;;;;;;;5043124;28;20064;-58
2022/01/18 04:10:13;;;;;;;16.95;7.30;;;;;;;;;;5025613;28;20036;-58
2022/01/18 04:12:40;;;;;;;12.75;6.57;;;;;;;;;;5026039;28;20027;-58
2022/01/18 04:15:07;;;;;;;13.38;7.10;;;;;;;;;;5025664;28;20029;-58
2022/01/18 04:31:02;;;;;;;12.75;6.70;;;;;;;;;;5025157;28;20121;-58
2022/01/18 04:33:28;;;;;;;13.07;6.88;;;;;;;;;;5025447;28;20028;-58
2022/01/18 04:35:54;;;;;;;17.13;7.75;;;;;;;;;;5041147;28;20115;-58
2022/01/18 04:38:20;;;;;;;12.57;6.68;;;;;;;;;;5044916;28;20045;-58
2022/01/18 04:40:48;;;;;;;13.80;7.28;;;;;;;;;;5045201;28;20032;-58
2022/01/18 04:48:31;;;;;;;11.20;6.20;;;;;;;;;;5045200;28;20044;-58
2022/01/18 04:51:00;;;;;;;13.40;7.20;;;;;;;;;;5044823;28;20024;-58
2022/01/18 04:53:31;;;;;;;13.13;6.20;;;;;;;;;;5045521;28;20021;-58
2022/01/18 04:56:00;;;;;;;12.02;5.75;;;;;;;;;;5045011;28;20017;-58
2022/01/18 04:58:27;;;;;;;11.20;5.78;;;;;;;;;;5045572;28;20032;-58
2022/01/18 05:00:55;;;;;;;10.25;5.65;;;;;;;;;;5044375;28;20033;-58
2022/01/18 05:03:21;;;;;;;10.18;5.30;;;;;;;;;;5044631;28;20082;-58
2022/01/18 05:05:49;;;;;;;12.55;5.50;;;;;;;;;;5044912;28;20155;-58
2022/01/18 05:08:16;;;;;;;13.05;5.85;;;;;;;;;;5044684;28;20138;-58
2022/01/18 05:10:50;;;;;;;14.30;6.00;;;;;;;;;;5044884;28;20028;-58
2022/01/18 05:13:32;;;;;;;11.30;5.80;;;;;;;;;;5044688;28;20048;-58
2022/01/18 05:16:19;;;;;;;13.45;6.43;;;;;;;;;;5040056;28;20025;-58
2022/01/18 05:19:06;;;;;;;10.68;5.65;;;;;;;;;;5024917;28;20031;-58
2022/01/18 05:22:55;;;;;;;11.05;6.05;;;;;;;;;;5024941;28;20060;-58
2022/01/18 05:24:23;;;;;;;13.05;6.10;;;;;;;;;;5024542;28;20033;-58
2022/01/18 05:26:50;;;;;;;11.57;5.95;;;;;;;;;;5024869;28;20527;-58
2022/01/18 05:29:17;;;;;;;14.35;6.07;;;;;;;;;;5024375;28;20120;-58
2022/01/18 05:31:44;;;;;;;13.00;6.60;;;;;;;;;;5042985;28;20033;-58
2022/01/18 05:34:11;;;;;;;13.25;6.15;;;;;;;;;;5044569;28;20045;-58
2022/01/18 05:36:38;;;;;;;11.90;5.80;;;;;;;;;;5044626;28;20025;-58
2022/01/18 05:39:06;;;;;;;9.88;5.00;;;;;;;;;;5044666;28;20024;-58
2022/01/18 05:41:32;;;;;;;18.27;8.75;;;;;;;;;;5044179;28;20048;-58
2022/01/18 05:43:59;;;;;;;16.33;8.55;;;;;;;;;;5044493;28;20021;-58
2022/01/18 05:46:25;;;;;;;14.35;8.00;;;;;;;;;;5044287;28;20040;-58
2022/01/18 05:48:51;;;;;;;15.50;8.18;;;;;;;;;;5048614;28;20407;-58
2022/01/18 05:51:18;;;;;;;16.20;9.05;;;;;;;;;;5046772;28;20043;-58
2022/01/18 05:53:44;;;;;;;26.13;13.38;;;;;;;;;;5046979;28;20488;-58
2022/01/18 05:56:12;;;;;;;27.48;12.55;;;;;;;;;;5048607;28;20021;-58
2022/01/18 05:58:45;;;;;;;22.08;11.13;;;;;;;;;;5048439;28;20021;-58
2022/01/18 06:01:13;;;;;;;18.70;9.32;;;;;;;;;;5048234;28;20029;-58
2022/01/18 06:09:11;;;;;;;18.58;9.10;;;;;;;;;;5046668;28;20091;-58
2022/01/18 06:11:37;;;;;;;16.05;8.48;;;;;;;;;;5046933;28;20056;-58
2022/01/18 06:14:04;;;;;;;14.38;8.00;;;;;;;;;;5047903;28;20411;-58
2022/01/18 06:16:30;;;;;;;12.88;6.85;;;;;;;;;;5047666;28;20035;-58
2022/01/18 06:18:56;;;;;;;11.32;7.00;;;;;;;;;;5048045;28;20053;-58
2022/01/18 06:21:22;;;;;;;12.00;7.15;;;;;;;;;;5047589;28;20064;-58
2022/01/18 06:23:49;;;;;;;13.75;7.65;;;;;;;;;;5047702;28;20471;-58
2022/01/18 06:26:16;;;;;;;11.90;6.88;;;;;;;;;;5048323;28;20076;-58
2022/01/18 06:28:45;;;;;;;15.50;7.68;;;;;;;;;;5047398;28;20504;-58
2022/01/18 06:31:12;;;;;;;14.18;7.03;;;;;;;;;;5046459;28;20041;-58
2022/01/18 06:33:38;;;;;;;14.73;7.40;;;;;;;;;;5047747;28;20021;-58
2022/01/18 06:36:04;;;;;;;11.30;6.65;;;;;;;;;;5047722;28;20025;-58
2022/01/18 06:38:31;;;;;;;11.50;6.22;;;;;;;;;;5047355;28;20021;-58
2022/01/18 06:40:58;;;;;;;12.55;6.15;;;;;;;;;;5047425;28;20037;-59
2022/01/18 06:43:24;;;;;;;13.20;7.30;;;;;;;;;;5045767;28;20570;-58
2022/01/18 06:45:50;;;;;;;13.68;6.88;;;;;;;;;;5043799;28;20029;-58
2022/01/18 06:48:16;;;;;;;14.68;7.03;;;;;;;;;;5031134;28;20033;-58
2022/01/18 06:50:42;;;;;;;11.52;6.47;;;;;;;;;;5033204;28;20041;-58
2022/01/18 06:53:08;;;;;;;11.20;5.68;;;;;;;;;;5028857;28;20028;-58
2022/01/18 06:55:35;;;;;;;10.70;5.93;;;;;;;;;;5029087;28;20037;-58
2022/01/18 06:58:01;;;;;;;13.85;6.70;;;;;;;;;;5035227;28;20428;-58
2022/01/18 07:00:27;;;;;;;10.80;6.25;;;;;;;;;;5028753;28;20041;-58
2022/01/18 07:02:53;;;;;;;11.13;6.13;;;;;;;;;;5034148;28;20040;-58
2022/01/18 07:05:19;;;;;;;12.38;6.13;;;;;;;;;;5047579;28;20562;-58
2022/01/18 07:07:47;;;;;;;13.40;6.80;;;;;;;;;;5049053;28;20130;-58
2022/01/18 07:10:14;;;;;;;12.35;6.40;;;;;;;;;;5048037;28;20055;-58
2022/01/18 07:12:40;;;;;;;12.77;6.25;;;;;;;;;;5048135;28;20025;-58
2022/01/18 07:15:06;;;;;;;12.48;6.28;;;;;;;;;;5048157;28;20572;-58
2022/01/18 07:17:33;;;;;;;10.75;5.78;;;;;;;;;;5044757;28;20413;-58
2022/01/18 07:19:59;;;;;;;12.00;6.50;;;;;;;;;;5048501;28;20080;-58
2022/01/18 07:22:25;;;;;;;13.18;5.93;;;;;;;;;;5045168;28;20025;-58
2022/01/18 07:24:56;;;;;;;14.20;7.30;;;;;;;;;;5041437;28;20093;-58
2022/01/18 07:27:22;;;;;;;13.93;7.40;;;;;;;;;;5041098;28;20032;-58
2022/01/18 07:29:48;;;;;;;13.25;6.38;;;;;;;;;;5047333;28;20082;-58
2022/01/18 07:32:14;;;;;;;11.70;6.13;;;;;;;;;;5046773;28;20507;-58
2022/01/18 07:34:49;;;;;;;10.82;6.35;;;;;;;;;;5048093;28;20679;-58
2022/01/18 07:37:15;;;;;;;12.05;6.57;;;;;;;;;;5047570;28;20025;-58
2022/01/18 07:39:41;;;;;;;12.38;7.15;;;;;;;;;;5046656;28;20060;-58
2022/01/18 07:42:08;;;;;;;13.88;7.20;;;;;;;;;;5046708;28;20033;-58
2022/01/18 07:44:35;;;;;;;12.60;7.07;;;;;;;;;;5047318;28;20438;-59
2022/01/18 07:47:01;;;;;;;12.90;6.97;;;;;;;;;;5046387;28;20056;-58
2022/01/18 07:49:28;;;;;;;14.02;6.90;;;;;;;;;;5045682;28;20063;-58
2022/01/18 07:51:55;;;;;;;14.90;7.32;;;;;;;;;;5046112;28;20025;-58
2022/01/18 07:54:21;;;;;;;13.95;7.43;;;;;;;;;;5043698;28;20025;-58
2022/01/18 07:56:47;;;;;;;17.42;7.95;;;;;;;;;;5043160;28;20025;-58
2022/01/18 07:59:13;;;;;;;18.15;7.97;;;;;;;;;;5043356;28;20074;-58
2022/01/18 08:01:39;;;;;;;14.15;7.88;;;;;;;;;;5057495;28;20032;-58
2022/01/18 08:04:05;;;;;;;18.00;8.75;;;;;;;;;;5046480;28;20543;-58
2022/01/18 08:06:31;;;;;;;16.10;7.53;;;;;;;;;;5044765;28;20028;-58
2022/01/18 08:08:58;;;;;;;14.93;7.63;;;;;;;;;;5044785;28;20033;-58
2022/01/18 08:11:24;;;;;;;14.10;7.45;;;;;;;;;;5046564;28;20542;-58
2022/01/18 08:13:50;;;;;;;14.00;7.70;;;;;;;;;;5057646;28;20423;-59
2022/01/18 08:19:12;;;;;;;13.88;7.53;;;;;;;;;;5030360;28;20040;-58
2022/01/18 08:21:38;;;;;;;15.50;7.68;;;;;;;;;;5033453;28;20036;-58
2022/01/18 08:24:04;;;;;;;12.95;7.57;;;;;;;;;;5049678;28;20071;-58
2022/01/18 08:26:31;;;;;;;17.45;7.88;;;;;;;;;;5066951;28;20173;-58
2022/01/18 08:28:57;;;;;;;13.73;7.97;;;;;;;;;;5056988;28;20106;-58
2022/01/18 08:31:23;;;;;;;19.10;9.52;;;;;;;;;;5045388;28;20060;-58
2022/01/18 08:33:50;;;;;;;19.17;10.25;;;;;;;;;;5045085;28;20072;-58
2022/01/18 08:36:18;;;;;;;20.52;10.18;;;;;;;;;;5044834;28;21425;-58
2022/01/18 08:38:46;;;;;;;17.77;9.40;;;;;;;;;;5044504;28;20036;-58
2022/01/18 08:41:12;;;;;;;19.77;10.73;;;;;;;;;;5045723;28;20109;-58
2022/01/18 08:43:38;;;;;;;20.30;10.32;;;;;;;;;;5046272;28;20119;-58
2022/01/18 08:46:05;;;;;;;19.88;10.57;;;;;;;;;;5046427;28;20021;-58
2022/01/18 08:48:32;;;;;;;22.23;11.57;;;;;;;;;;5046108;28;20043;-58
2022/01/18 08:50:58;;;;;;;17.00;9.55;;;;;;;;;;5046401;28;20041;-58
2022/01/18 08:53:24;;;;;;;23.15;12.43;;;;;;;;;;5045977;28;20118;-58
2022/01/18 08:55:50;;;;;;;23.17;11.98;;;;;;;;;;5046199;28;20063;-58
2022/01/18 08:58:16;;;;;;;27.10;12.55;;;;;;;;;;5045597;28;20826;-58
2022/01/18 09:00:42;;;;;;;19.92;10.55;;;;;;;;;;5046132;28;20060;-58
2022/01/18 09:03:09;;;;;;;19.02;10.43;;;;;;;;;;5046042;28;20060;-58
2022/01/18 09:05:38;;;;;;;16.65;9.80;;;;;;;;;;5041922;28;20499;-58
2022/01/18 09:08:06;;;;;;;18.15;9.02;;;;;;;;;;5035761;28;20034;-58
2022/01/18 09:10:33;;;;;;;14.95;8.05;;;;;;;;;;5028798;28;20567;-58
2022/01/18 09:12:59;;;;;;;17.42;8.90;;;;;;;;;;5042940;28;20033;-58
2022/01/18 09:15:26;;;;;;;17.23;8.20;;;;;;;;;;5039624;28;20026;-58
2022/01/18 09:17:52;;;;;;;19.38;9.90;;;;;;;;;;5033344;28;20465;-58
2022/01/18 09:20:18;;;;;;;14.85;8.05;;;;;;;;;;5045767;28;20061;-58
2022/01/18 09:22:45;;;;;;;18.00;9.82;;;;;;;;;;5045336;28;20033;-58
2022/01/18 09:25:13;;;;;;;19.15;9.93;;;;;;;;;;5045388;28;20029;-59
2022/01/18 09:27:40;;;;;;;17.60;9.32;;;;;;;;;;5044959;28;20060;-58
2022/01/18 09:30:06;;;;;;;17.98;9.18;;;;;;;;;;5045418;28;20076;-58
2022/01/18 09:32:32;;;;;;;14.55;8.32;;;;;;;;;;5045676;28;20135;-59
2022/01/18 09:34:59;;;;;;;15.70;8.50;;;;;;;;;;5046250;28;20025;-58
2022/01/18 09:37:25;;;;;;;14.35;7.40;;;;;;;;;;5045370;28;20021;-58
2022/01/18 09:39:53;;;;;;;14.55;7.85;;;;;;;;;;5045348;28;20112;-58
2022/01/18 09:42:20;;;;;;;14.82;7.57;;;;;;;;;;5045227;28;20025;-58
2022/01/18 09:44:46;;;;;;;14.65;7.95;;;;;;;;;;5045800;28;20021;-59
2022/01/18 09:47:14;;;;;;;13.98;7.20;;;;;;;;;;5045472;28;20060;-58
2022/01/18 09:49:41;;;;;;;13.40;7.18;;;;;;;;;;5045637;28;20040;-58
2022/01/18 09:52:08;;;;;;;12.75;7.10;;;;;;;;;;5048662;28;20116;-59
2022/01/18 09:54:34;;;;;;;13.68;7.25;;;;;;;;;;5044910;28;20029;-59
2022/01/18 09:57:00;;;;;;;14.43;6.93;;;;;;;;;;5052121;28;20028;-58
2022/01/18 09:59:26;;;;;;;14.77;7.70;;;;;;;;;;5047616;28;20139;-58
2022/01/18 10:01:53;;;;;;;13.77;7.70;;;;;;;;;;5043224;28;20028;-59
2022/01/18 10:04:21;;;;;;;13.93;7.32;;;;;;;;;;5045536;28;20057;-59
2022/01/18 10:06:48;;;;;;;14.10;7.65;;;;;;;;;;5043742;28;20041;-59
2022/01/18 10:09:16;;;;;;;15.52;7.90;;;;;;;;;;5036299;28;20038;-59
2022/01/18 10:12:01;;;;;;;13.63;8.05;;;;;;;;;;5046608;28;20033;-59
2022/01/18 10:14:27;;;;;;;14.77;8.63;;;;;;;;;;5044393;28;20183;-58
2022/01/18 10:16:53;;;;;;;15.93;8.93;;;;;;;;;;5046194;28;20035;-59
2022/01/18 10:19:32;;;;;;;16.98;8.85;;;;;;;;;;5046332;28;20027;-59
2022/01/18 10:22:12;;;;;;;14.73;8.52;;;;;;;;;;5046479;28;20060;-58
2022/01/18 10:24:39;;;;;;;17.52;9.32;;;;;;;;;;5046549;28;20029;-59
2022/01/18 10:27:05;;;;;;;17.92;9.30;;;;;;;;;;5046430;28;20118;-58
2022/01/18 10:29:33;;;;;;;16.02;8.10;;;;;;;;;;5045080;28;20040;-59
2022/01/18 10:32:09;;;;;;;20.00;9.32;;;;;;;;;;5045132;28;20028;-59
2022/01/18 10:37:11;;;;;;;14.55;8.85;;;;;;;;;;5048814;28;20991;-59
2022/01/18 10:39:42;;;;;;;17.42;8.75;;;;;;;;;;5048619;28;20092;-59
2022/01/18 10:42:31;;;;;;;16.58;9.20;;;;;;;;;;5048461;28;20039;-59
2022/01/18 10:45:13;;;;;;;17.48;9.30;;;;;;;;;;5048271;28;20520;-58
2022/01/18 10:47:48;;;;;;;17.05;8.40;;;;;;;;;;5048704;28;20517;-58
2022/01/18 10:50:16;;;;;;;14.40;8.35;;;;;;;;;;5047286;28;20082;-59
2022/01/18 10:52:42;;;;;;;16.02;8.07;;;;;;;;;;5049649;28;20040;-58
2022/01/18 10:55:15;;;;;;;13.07;7.25;;;;;;;;;;5049438;28;20032;-59
2022/01/18 10:57:41;;;;;;;15.27;7.35;;;;;;;;;;5049903;28;20053;-58
2022/01/18 11:00:07;;;;;;;13.25;7.28;;;;;;;;;;5047805;28;20029;-58
2022/01/18 11:02:35;;;;;;;14.45;7.68;;;;;;;;;;5048246;28;20040;-58
2022/01/18 11:05:11;;;;;;;15.07;8.05;;;;;;;;;;5047868;28;20368;-59
2022/01/18 11:07:38;;;;;;;16.08;8.05;;;;;;;;;;5045541;28;20119;-59
2022/01/18 11:10:05;;;;;;;19.63;9.13;;;;;;;;;;5044103;28;20396;-58
2022/01/18 11:12:43;;;;;;;17.05;8.75;;;;;;;;;;5047655;28;20500;-58
2022/01/18 11:15:15;;;;;;;15.65;8.07;;;;;;;;;;5047862;28;20028;-58
2022/01/18 11:17:49;;;;;;;15.10;8.02;;;;;;;;;;5049065;28;20025;-58
2022/01/18 11:20:15;;;;;;;15.70;8.00;;;;;;;;;;5048200;28;20565;-59
2022/01/18 11:22:42;;;;;;;15.50;8.18;;;;;;;;;;5048477;28;20037;-59
2022/01/18 11:25:09;;;;;;;16.92;8.65;;;;;;;;;;5047948;28;20035;-59
2022/01/18 11:27:35;;;;;;;14.50;7.63;;;;;;;;;;5046276;28;20107;-59
2022/01/18 11:30:01;;;;;;;17.20;9.07;;;;;;;;;;5053097;28;20424;-59
2022/01/18 11:32:28;;;;;;;15.25;8.40;;;;;;;;;;5027651;28;20025;-59
2022/01/18 11:35:13;;;;;;;15.88;7.70;;;;;;;;;;5040718;28;20028;-59
2022/01/18 11:37:42;;;;;;;14.40;7.75;;;;;;;;;;5045137;28;20033;-58
2022/01/18 11:40:18;;;;;;;17.00;8.57;;;;;;;;;;5039189;28;20037;-58
2022/01/18 11:42:50;;;;;;;19.77;8.98;;;;;;;;;;5045038;28;20039;-58
2022/01/18 11:45:37;;;;;;;15.38;8.32;;;;;;;;;;5046320;28;20118;-58
2022/01/18 11:48:03;;;;;;;14.73;8.23;;;;;;;;;;5048024;28;20033;-58
2022/01/18 11:50:30;;;;;;;14.30;7.93;;;;;;;;;;5054782;28;20385;-58
2022/01/18 11:53:23;;;;;;;14.38;7.72;;;;;;;;;;5048682;28;20100;-59
2022/01/18 11:55:50;;;;;;;13.23;7.30;;;;;;;;;;5041843;28;20079;-58
2022/01/18 11:58:16;;;;;;;14.57;7.60;;;;;;;;;;5047705;28;20029;-58
2022/01/18 12:00:53;;;;;;;16.23;7.72;;;;;;;;;;5048695;28;20067;-58
2022/01/18 12:03:26;;;;;;;12.90;7.63;;;;;;;;;;5046906;28;20025;-59
2022/01/18 12:05:53;;;;;;;14.97;8.37;;;;;;;;;;5047251;28;20032;-59
2022/01/18 12:08:39;;;;;;;15.00;8.30;;;;;;;;;;5047445;28;20041;-59
2022/01/18 12:11:25;;;;;;;12.52;7.53;;;;;;;;;;5038577;28;20033;-59
2022/01/18 12:13:57;;;;;;;13.93;7.28;;;;;;;;;;5040920;28;20053;-58
2022/01/18 12:16:26;;;;;;;14.35;8.00;;;;;;;;;;5047757;28;20040;-60
2022/01/18 12:18:56;;;;;;;12.88;6.97;;;;;;;;;;5036467;28;20511;-58
2022/01/18 12:21:27;;;;;;;13.93;7.68;;;;;;;;;;5046559;28;20029;-58
2022/01/18 12:23:54;;;;;;;12.60;7.13;;;;;;;;;;5046751;28;20120;-58
2022/01/18 12:26:34;;;;;;;12.38;6.60;;;;;;;;;;5045436;28;20032;-58
2022/01/18 12:29:23;;;;;;;12.02;6.60;;;;;;;;;;5044713;28;20051;-58
2022/01/18 12:34:29;;;;;;;15.18;7.63;;;;;;;;;;5045983;28;20040;-59
2022/01/18 12:37:19;;;;;;;13.23;7.10;;;;;;;;;;5046700;28;20497;-59
2022/01/18 12:39:57;;;;;;;12.55;7.13;;;;;;;;;;5036356;28;20040;-59
2022/01/18 12:45:04;;;;;;;11.90;6.65;;;;;;;;;;5034791;28;20515;-59
2022/01/18 12:47:30;;;;;;;11.15;6.07;;;;;;;;;;5045790;28;20047;-59
2022/01/18 12:49:56;;;;;;;14.05;7.18;;;;;;;;;;5044438;28;20028;-59
2022/01/18 12:52:23;;;;;;;11.88;6.53;;;;;;;;;;5044130;28;20071;-59
2022/01/18 12:54:49;;;;;;;11.20;6.22;;;;;;;;;;5038628;28;20272;-59
2022/01/18 12:57:16;;;;;;;11.90;6.28;;;;;;;;;;5041460;28;20035;-59
2022/01/18 12:59:58;;;;;;;11.43;6.13;;;;;;;;;;5025215;28;20416;-59
2022/01/18 13:02:24;;;;;;;9.20;5.72;;;;;;;;;;5023817;28;20030;-59
2022/01/18 13:05:00;;;;;;;11.13;6.22;;;;;;;;;;5024331;28;20457;-59
2022/01/18 13:07:26;;;;;;;9.18;5.82;;;;;;;;;;5023924;28;20025;-59
2022/01/18 13:09:59;;;;;;;10.13;6.03;;;;;;;;;;5024262;28;20021;-59
2022/01/18 13:12:29;;;;;;;10.90;6.30;;;;;;;;;;5040191;28;20036;-59
2022/01/18 13:14:56;;;;;;;10.75;6.07;;;;;;;;;;5044213;28;20083;-59
2022/01/18 13:23:17;;;;;;;12.13;6.78;;;;;;;;;;5024123;28;20036;-59
2022/01/18 13:25:47;;;;;;;10.40;6.38;;;;;;;;;;5023373;28;20038;-59
2022/01/18 13:28:13;;;;;;;9.75;6.22;;;;;;;;;;5024641;28;20185;-59
2022/01/18 13:30:40;;;;;;;12.80;7.10;;;;;;;;;;5024165;28;20025;-59
2022/01/18 13:33:06;;;;;;;8.90;5.63;;;;;;;;;;5022269;28;20035;-59
2022/01/18 13:35:33;;;;;;;10.98;6.30;;;;;;;;;;5039284;28;20459;-59
2022/01/18 13:38:03;;;;;;;12.77;7.20;;;;;;;;;;5024188;28;20026;-59
2022/01/18 13:40:30;;;;;;;11.35;6.20;;;;;;;;;;5023703;28;20256;-59
2022/01/18 13:43:04;;;;;;;11.18;6.13;;;;;;;;;;5023917;28;20025;-59
2022/01/18 13:45:31;;;;;;;10.95;6.40;;;;;;;;;;5023899;28;20104;-59
2022/01/18 13:48:02;;;;;;;8.57;5.45;;;;;;;;;;5023746;28;20037;-59
2022/01/18 13:50:37;;;;;;;11.38;5.85;;;;;;;;;;5029855;28;20040;-59
2022/01/18 13:53:06;;;;;;;10.02;5.60;;;;;;;;;;5044070;28;20048;-59
2022/01/18 13:55:35;;;;;;;9.35;5.50;;;;;;;;;;5043673;28;20033;-59
2022/01/18 13:58:02;;;;;;;9.98;5.80;;;;;;;;;;5042592;28;20591;-59
2022/01/18 14:00:30;;;;;;;10.25;6.00;;;;;;;;;;5041619;28;20079;-59
2022/01/18 14:02:56;;;;;;;8.98;5.70;;;;;;;;;;5042683;28;20025;-59
2022/01/18 14:05:24;;;;;;;11.25;5.55;;;;;;;;;;5041966;28;20033;-59
2022/01/18 14:08:01;;;;;;;10.63;5.80;;;;;;;;;;5043268;28;20303;-59
2022/01/18 14:10:27;;;;;;;10.93;5.97;;;;;;;;;;5027184;28;20405;-59
2022/01/18 14:12:53;;;;;;;11.02;6.32;;;;;;;;;;5027698;28;20524;-59
2022/01/18 14:15:37;;;;;;;8.77;5.32;;;;;;;;;;5027325;28;20025;-59
2022/01/18 14:18:03;;;;;;;;;;;;;;;;;;5026570;28;20029;-59
2022/01/18 14:20:31;;;;;;;11.50;6.65;;;;;;;;;;5026650;28;19966;-60
2022/01/18 14:22:57;;;;;;;10.68;6.07;;;;;;;;;;5047116;28;20539;-59
2022/01/18 14:25:29;;;;;;;10.25;6.53;;;;;;;;;;5047111;28;20272;-59
2022/01/18 14:27:55;;;;;;;10.80;6.47;;;;;;;;;;5041373;28;20033;-59
2022/01/18 14:30:24;;;;;;;10.90;6.10;;;;;;;;;;5026878;28;20091;-59
2022/01/18 14:32:51;;;;;;;7.32;5.22;;;;;;;;;;5027537;28;20026;-59
2022/01/18 14:35:22;;;;;;;9.88;6.20;;;;;;;;;;5057897;28;20158;-59
2022/01/18 14:37:48;;;;;;;9.45;5.72;;;;;;;;;;5047053;28;20098;-59
2022/01/18 14:40:23;;;;;;;9.55;5.55;;;;;;;;;;5047168;28;20021;-59
2022/01/18 14:42:52;;;;;;;9.52;5.43;;;;;;;;;;5045582;28;20500;-59
2022/01/18 14:47:50;;;;;;;8.70;5.60;;;;;;;;;;5044432;28;20052;-59
2022/01/18 14:50:19;;;;;;;9.32;5.40;;;;;;;;;;5046237;28;20041;-59
2022/01/18 14:52:48;;;;;;;11.23;5.93;;;;;;;;;;5045882;28;20021;-59
2022/01/18 14:55:15;;;;;;;10.10;5.78;;;;;;;;;;5046954;28;20060;-59
2022/01/18 14:57:42;;;;;;;11.68;6.00;;;;;;;;;;5047574;28;20033;-59
2022/01/18 15:00:09;;;;;;;10.75;6.10;;;;;;;;;;5046536;28;20039;-60
2022/01/18 15:02:35;;;;;;;10.13;5.82;;;;;;;;;;5045506;28;20083;-59
2022/01/18 15:05:02;;;;;;;9.85;6.13;;;;;;;;;;5042100;28;20038;-60
2022/01/18 15:07:28;;;;;;;10.25;5.72;;;;;;;;;;5042278;28;20079;-59
2022/01/18 15:09:54;;;;;;;10.88;6.03;;;;;;;;;;5046512;28;20484;-58
2022/01/18 15:12:20;;;;;;;7.70;5.25;;;;;;;;;;5047626;28;20013;-59
2022/01/18 15:14:46;;;;;;;9.88;6.30;;;;;;;;;;5046746;28;20024;-59
2022/01/18 15:17:13;;;;;;;10.40;5.75;;;;;;;;;;5047458;28;20028;-59
2022/01/18 15:19:39;;;;;;;9.43;5.80;;;;;;;;;;5046044;28;20021;-59
2022/01/18 15:22:09;;;;;;;9.77;5.55;;;;;;;;;;5046914;28;20028;-59
2022/01/18 15:24:35;;;;;;;10.32;5.93;;;;;;;;;;5046407;28;20536;-59
2022/01/18 15:27:02;;;;;;;11.85;6.15;;;;;;;;;;5046655;28;20057;-59
2022/01/18 15:29:30;;;;;;;11.48;6.78;;;;;;;;;;5046397;28;20439;-59
2022/01/18 15:31:56;;;;;;;13.40;6.72;;;;;;;;;;5046421;28;20029;-59
2022/01/18 15:34:22;;;;;;;10.00;5.72;;;;;;;;;;5046366;28;20446;-59
2022/01/18 15:36:48;;;;;;;10.93;6.30;;;;;;;;;;5046456;28;20108;-59
2022/01/18 15:39:15;;;;;;;10.82;5.82;;;;;;;;;;5046762;28;20108;-59
2022/01/18 15:41:41;;;;;;;10.55;6.68;;;;;;;;;;5046854;28;20033;-59
2022/01/18 15:44:08;;;;;;;12.02;6.30;;;;;;;;;;5046376;28;20032;-59
2022/01/18 15:46:35;;;;;;;11.35;5.90;;;;;;;;;;5046140;28;20025;-59
2022/01/18 15:49:04;;;;;;;9.57;5.70;;;;;;;;;;5046312;28;20037;-59
2022/01/18 15:51:31;;;;;;;9.80;6.03;;;;;;;;;;5045954;28;20017;-59
2022/01/18 15:53:57;;;;;;;9.95;6.10;;;;;;;;;;5045955;28;20101;-59
2022/01/18 15:56:24;;;;;;;9.23;5.70;;;;;;;;;;5044123;28;20107;-59
2022/01/18 15:58:50;;;;;;;9.60;6.03;;;;;;;;;;5047520;28;20404;-59
2022/01/18 16:01:16;;;;;;;12.80;6.70;;;;;;;;;;5047367;28;20029;-59
2022/01/18 16:03:42;;;;;;;14.10;7.22;;;;;;;;;;5048160;28;20397;-59